createdAt,value
2019-01-25T00:00:37.504Z,0.6
2019-01-25T00:01:27.557Z,0.7
2019-01-25T00:02:17.352Z,0.6
2019-01-25T00:03:13.055Z,0.8
2019-01-25T00:03:58.012Z,0.7
2019-01-25T00:04:47.799Z,0.8
2019-01-25T00:05:37.569Z,0.8
2019-01-25T00:06:28.182Z,0.8
2019-01-25T00:07:17.966Z,0.8
2019-01-25T00:08:08.073Z,0.8
2019-01-25T00:08:58.076Z,0.7
2019-01-25T00:09:48.421Z,0.8
2019-01-25T00:10:37.913Z,0.8
2019-01-25T00:11:27.976Z,0.8
2019-01-25T00:12:18.316Z,0.8
2019-01-25T00:13:08.644Z,0.8
2019-01-25T00:13:58.424Z,0.8
2019-01-25T00:14:48.762Z,0.8
2019-01-25T00:15:38.311Z,0.8
2019-01-25T00:16:28.882Z,0.8
2019-01-25T00:17:19.191Z,0.8
2019-01-25T00:18:08.746Z,0.8
2019-01-25T00:18:59.048Z,0.8
2019-01-25T00:19:49.106Z,0.8
2019-01-25T00:20:38.891Z,0.8
2019-01-25T00:21:28.956Z,0.8
2019-01-25T00:22:19.335Z,0.8
2019-01-25T00:23:09.328Z,0.8
2019-01-25T00:23:59.714Z,0.8
2019-01-25T00:24:49.188Z,0.8
2019-01-25T00:25:39.235Z,0.8
2019-01-25T00:26:29.288Z,0.7
2019-01-25T00:27:19.125Z,0.7
2019-01-25T00:28:09.136Z,0.7
2019-01-25T00:28:59.740Z,0.7
2019-01-25T00:29:49.245Z,0.8
2019-01-25T00:30:39.915Z,0.8
2019-01-25T00:31:29.652Z,0.8
2019-01-25T00:32:19.975Z,0.8
2019-01-25T00:33:10.035Z,0.8
2019-01-25T00:33:59.808Z,0.8
2019-01-25T00:34:50.137Z,0.8
2019-01-25T00:35:40.202Z,0.8
2019-01-25T00:36:29.999Z,0.8
2019-01-25T00:37:20.319Z,0.8
2019-01-25T00:38:10.122Z,0.8
2019-01-25T00:38:59.900Z,0.8
2019-01-25T00:39:49.945Z,0.8
2019-01-25T00:40:40.273Z,0.8
2019-01-25T00:41:30.332Z,0.8
2019-01-25T00:42:20.107Z,0.8
2019-01-25T00:43:10.491Z,0.7
2019-01-25T00:44:00.217Z,0.8
2019-01-25T00:44:50.844Z,0.8
2019-01-25T00:45:40.907Z,0.8
2019-01-25T00:46:30.672Z,0.8
2019-01-25T00:47:20.746Z,0.8
2019-01-25T00:48:10.517Z,0.8
2019-01-25T00:49:00.571Z,0.8
2019-01-25T00:49:51.191Z,0.8
2019-01-25T00:50:40.961Z,0.8
2019-01-25T00:51:30.751Z,0.8
2019-01-25T00:52:20.801Z,0.8
2019-01-25T00:53:11.414Z,0.7
2019-01-25T00:54:01.210Z,0.7
2019-01-25T00:54:50.983Z,0.7
2019-01-25T00:55:41.634Z,0.8
2019-01-25T00:56:31.381Z,0.8
2019-01-25T00:57:21.426Z,0.8
2019-01-25T00:58:11.776Z,0.8
2019-01-25T00:59:01.841Z,0.8
2019-01-25T00:59:51.873Z,0.8
2019-01-25T01:00:41.663Z,0.8
2019-01-25T01:01:31.469Z,0.8
2019-01-25T01:02:22.063Z,0.8
2019-01-25T01:03:11.834Z,0.8
2019-01-25T01:04:01.610Z,0.9
2019-01-25T01:04:52.252Z,0.8
2019-01-25T01:05:41.455Z,0.9
2019-01-25T01:06:32.078Z,0.9
2019-01-25T01:07:22.116Z,0.9
2019-01-25T01:08:12.185Z,0.9
2019-01-25T01:09:02.510Z,0.8
2019-01-25T01:09:52.571Z,0.8
2019-01-25T01:10:42.681Z,0.8
2019-01-25T01:11:32.420Z,0.8
2019-01-25T01:12:22.740Z,0.8
2019-01-25T01:13:12.253Z,0.8
2019-01-25T01:14:02.582Z,0.8
2019-01-25T01:14:52.922Z,0.8
2019-01-25T01:15:42.697Z,0.8
2019-01-25T01:16:33.031Z,0.8
2019-01-25T01:17:23.085Z,0.8
2019-01-25T01:18:12.589Z,0.8
2019-01-25T01:19:02.910Z,0.8
2019-01-25T01:19:53.264Z,0.8
2019-01-25T01:20:43.034Z,0.9
2019-01-25T01:21:33.370Z,0.9
2019-01-25T01:22:23.431Z,0.9
2019-01-25T01:23:12.930Z,0.9
2019-01-25T01:24:03.549Z,0.9
2019-01-25T01:24:53.320Z,0.9
2019-01-25T01:25:43.667Z,0.9
2019-01-25T01:26:33.444Z,0.8
2019-01-25T01:27:23.496Z,0.9
2019-01-25T01:28:13.835Z,0.8
2019-01-25T01:29:03.624Z,0.7
2019-01-25T01:29:53.689Z,0.7
2019-01-25T01:30:44.014Z,0.7
2019-01-25T01:31:34.072Z,0.8
2019-01-25T01:32:23.839Z,0.8
2019-01-25T01:33:14.181Z,0.8
2019-01-25T01:34:04.017Z,0.8
2019-01-25T01:34:54.003Z,0.8
2019-01-25T01:35:44.074Z,0.8
2019-01-25T01:36:34.406Z,0.8
2019-01-25T01:37:24.193Z,0.8
2019-01-25T01:38:14.531Z,0.8
2019-01-25T01:39:04.305Z,0.8
2019-01-25T01:39:54.381Z,0.8
2019-01-25T01:40:44.446Z,0.8
2019-01-25T01:41:34.783Z,0.9
2019-01-25T01:42:24.559Z,0.9
2019-01-25T01:43:14.594Z,0.8
2019-01-25T01:44:04.673Z,0.9
2019-01-25T01:44:54.445Z,0.9
2019-01-25T01:45:44.763Z,0.8
2019-01-25T01:46:35.095Z,0.8
2019-01-25T01:47:24.608Z,0.8
2019-01-25T01:48:14.950Z,0.8
2019-01-25T01:49:04.733Z,0.8
2019-01-25T01:49:55.067Z,0.8
2019-01-25T01:50:44.572Z,0.8
2019-01-25T01:51:35.176Z,0.8
2019-01-25T01:52:24.950Z,0.8
2019-01-25T01:53:15.029Z,0.8
2019-01-25T01:54:05.629Z,0.8
2019-01-25T01:54:55.407Z,0.8
2019-01-25T01:55:45.743Z,0.8
2019-01-25T01:56:35.019Z,0.8
2019-01-25T01:57:25.577Z,0.8
2019-01-25T01:58:15.912Z,0.8
2019-01-25T01:59:05.979Z,0.8
2019-01-25T01:59:55.257Z,0.8
2019-01-25T02:00:46.077Z,0.8
2019-01-25T02:01:36.160Z,0.8
2019-01-25T02:02:26.199Z,0.8
2019-01-25T02:03:15.974Z,0.7
2019-01-25T02:04:05.784Z,0.8
2019-01-25T02:04:56.374Z,0.8
2019-01-25T02:05:46.259Z,0.7
2019-01-25T02:06:36.486Z,0.8
2019-01-25T02:07:26.267Z,0.8
2019-01-25T02:08:16.606Z,0.8
2019-01-25T02:09:06.664Z,0.8
2019-01-25T02:09:56.720Z,0.8
2019-01-25T02:10:46.774Z,0.8
2019-01-25T02:11:36.292Z,0.8
2019-01-25T02:12:26.889Z,0.8
2019-01-25T02:13:16.669Z,0.8
2019-01-25T02:14:06.686Z,0.8
2019-01-25T02:14:56.551Z,0.8
2019-01-25T02:15:46.566Z,0.8
2019-01-25T02:16:36.911Z,0.8
2019-01-25T02:17:26.951Z,0.8
2019-01-25T02:18:17.297Z,0.8
2019-01-25T02:19:07.358Z,0.9
2019-01-25T02:19:57.438Z,0.9
2019-01-25T02:20:47.473Z,0.8
2019-01-25T02:21:37.260Z,0.9
2019-01-25T02:22:27.636Z,0.8
2019-01-25T02:23:17.366Z,0.9
2019-01-25T02:24:07.418Z,0.8
2019-01-25T02:24:57.750Z,0.9
2019-01-25T02:25:47.270Z,0.9
2019-01-25T02:26:37.591Z,0.9
2019-01-25T02:27:27.940Z,0.8
2019-01-25T02:28:17.430Z,0.8
2019-01-25T02:29:08.045Z,0.8
2019-01-25T02:29:58.100Z,0.8
2019-01-25T02:30:47.892Z,0.8
2019-01-25T02:31:37.683Z,0.8
2019-01-25T02:32:28.038Z,0.8
2019-01-25T02:33:18.330Z,0.8
2019-01-25T02:34:08.430Z,0.8
2019-01-25T02:34:58.474Z,0.8
2019-01-25T02:35:48.246Z,0.7
2019-01-25T02:36:38.017Z,0.8
2019-01-25T02:37:28.728Z,0.8
2019-01-25T02:38:18.147Z,0.8
2019-01-25T02:39:08.214Z,0.8
2019-01-25T02:39:58.544Z,0.8
2019-01-25T02:40:48.605Z,0.8
2019-01-25T02:41:38.646Z,0.8
2019-01-25T02:42:28.705Z,0.8
2019-01-25T02:43:18.773Z,0.8
2019-01-25T02:44:08.832Z,0.8
2019-01-25T02:44:58.892Z,0.8
2019-01-25T02:45:49.207Z,0.8
2019-01-25T02:46:38.712Z,0.8
2019-01-25T02:47:28.771Z,0.9
2019-01-25T02:48:18.902Z,0.9
2019-01-25T02:49:09.161Z,0.9
2019-01-25T02:49:59.493Z,0.9
2019-01-25T02:50:49.266Z,0.9
2019-01-25T02:51:39.613Z,0.8
2019-01-25T02:52:29.661Z,0.9
2019-01-25T02:53:19.440Z,0.9
2019-01-25T02:54:09.504Z,0.9
2019-01-25T02:54:59.842Z,0.9
2019-01-25T02:55:49.632Z,0.9
2019-01-25T02:56:39.968Z,0.9
2019-01-25T02:57:30.026Z,0.9
2019-01-25T02:58:19.801Z,0.9
2019-01-25T02:59:10.152Z,0.9
2019-01-25T02:59:59.896Z,0.9
2019-01-25T03:00:50.301Z,0.8
2019-01-25T03:01:40.016Z,0.8
2019-01-25T03:02:30.440Z,0.8
2019-01-25T03:03:20.434Z,0.8
2019-01-25T03:04:10.475Z,0.8
2019-01-25T03:05:00.533Z,0.8
2019-01-25T03:08:33.251Z,0.8
2019-01-25T03:09:22.909Z,0.8
2019-01-25T03:10:13.275Z,0.9
2019-01-25T03:11:03.278Z,0.9
2019-01-25T03:11:53.080Z,0.8
2019-01-25T03:12:43.450Z,0.9
2019-01-25T03:13:33.259Z,0.9
2019-01-25T03:14:23.264Z,0.9
2019-01-25T03:15:13.604Z,0.9
2019-01-25T03:16:03.622Z,0.9
2019-01-25T03:16:53.122Z,0.9
2019-01-25T03:17:43.737Z,0.9
2019-01-25T03:18:33.529Z,0.9
2019-01-25T03:19:23.862Z,0.9
2019-01-25T03:20:13.916Z,0.9
2019-01-25T03:21:05.567Z,0.9
2019-01-25T03:21:54.072Z,0.9
2019-01-25T03:22:44.097Z,0.9
2019-01-25T03:23:33.893Z,0.9
2019-01-25T03:24:24.249Z,0.9
2019-01-25T03:25:13.999Z,0.8
2019-01-25T03:26:04.369Z,0.9
2019-01-25T03:26:54.363Z,0.9
2019-01-25T03:27:44.171Z,0.9
2019-01-25T03:28:34.495Z,0.9
2019-01-25T03:29:24.571Z,0.9
2019-01-25T03:30:14.644Z,0.9
2019-01-25T03:31:04.705Z,0.9
2019-01-25T03:31:54.510Z,0.9
2019-01-25T03:32:44.613Z,0.9
2019-01-25T03:33:34.584Z,0.9
2019-01-25T03:34:24.949Z,0.9
2019-01-25T03:35:14.949Z,0.9
2019-01-25T03:36:04.726Z,0.9
2019-01-25T03:36:54.496Z,0.9
2019-01-25T03:37:44.851Z,0.9
2019-01-25T03:38:34.908Z,0.9
2019-01-25T03:39:24.729Z,0.9
2019-01-25T03:40:15.295Z,0.9
2019-01-25T03:41:05.353Z,0.9
2019-01-25T03:41:55.123Z,0.9
2019-01-25T03:42:45.470Z,0.9
2019-01-25T03:43:35.250Z,0.9
2019-01-25T03:44:25.580Z,0.9
2019-01-25T03:45:15.621Z,0.9
2019-01-25T03:46:05.445Z,0.9
2019-01-25T03:46:55.746Z,0.9
2019-01-25T03:47:45.633Z,0.9
2019-01-25T03:48:35.870Z,0.9
2019-01-25T03:49:25.953Z,1
2019-01-25T03:50:16.023Z,1
2019-01-25T03:51:05.759Z,1
2019-01-25T03:51:56.110Z,0.9
2019-01-25T03:52:45.890Z,0.9
2019-01-25T03:53:36.216Z,0.9
2019-01-25T03:54:26.272Z,0.9
2019-01-25T03:55:16.072Z,0.9
2019-01-25T03:56:06.393Z,1
2019-01-25T03:56:56.452Z,1
2019-01-25T03:57:46.486Z,1
2019-01-25T03:58:36.547Z,1
2019-01-25T03:59:26.634Z,1
2019-01-25T04:00:16.651Z,1
2019-01-25T04:01:06.707Z,1
2019-01-25T04:01:56.500Z,0.9
2019-01-25T04:02:46.826Z,1
2019-01-25T04:03:36.890Z,1
2019-01-25T04:04:26.101Z,1.1
2019-01-25T04:05:17.018Z,1.1
2019-01-25T04:06:07.087Z,1.1
2019-01-25T04:06:56.824Z,1.1
2019-01-25T04:07:47.293Z,1.1
2019-01-25T04:08:36.957Z,1.1
2019-01-25T04:09:27.298Z,1.1
2019-01-25T04:10:17.089Z,1.1
2019-01-25T04:11:07.416Z,1.1
2019-01-25T04:11:57.491Z,1.1
2019-01-25T04:12:47.513Z,1.1
2019-01-25T04:13:37.331Z,1.1
2019-01-25T04:14:27.689Z,1.1
2019-01-25T04:15:17.412Z,1.1
2019-01-25T04:16:07.821Z,1.1
2019-01-25T04:16:57.521Z,1.1
2019-01-25T04:17:47.896Z,1.1
2019-01-25T04:18:37.929Z,1.2
2019-01-25T04:19:27.696Z,1.2
2019-01-25T04:20:18.064Z,1.2
2019-01-25T04:21:08.183Z,1.3
2019-01-25T04:21:57.888Z,1.3
2019-01-25T04:22:47.973Z,1.3
2019-01-25T04:23:38.260Z,1.3
2019-01-25T04:24:28.315Z,1.3
2019-01-25T04:25:18.418Z,1.3
2019-01-25T04:26:08.485Z,1.3
2019-01-25T04:26:58.212Z,1.3
2019-01-25T04:27:48.271Z,1.3
2019-01-25T04:28:38.331Z,1.3
2019-01-25T04:29:28.740Z,1.3
2019-01-25T04:30:18.867Z,1.3
2019-01-25T04:31:08.807Z,1.3
2019-01-25T04:31:58.545Z,1.3
2019-01-25T04:32:48.917Z,1.4
2019-01-25T04:33:38.950Z,1.4
2019-01-25T04:34:29.006Z,1.4
2019-01-25T04:35:19.095Z,1.4
2019-01-25T04:36:08.869Z,1.4
2019-01-25T04:36:59.229Z,1.4
2019-01-25T04:37:49.299Z,1.4
2019-01-25T04:38:39.295Z,1.4
2019-01-25T04:39:28.781Z,1.4
2019-01-25T04:40:19.431Z,1.4
2019-01-25T04:41:14.672Z,1.4
2019-01-25T04:41:59.507Z,1.4
2019-01-25T04:42:49.344Z,1.4
2019-01-25T04:43:39.629Z,1.4
2019-01-25T04:44:29.154Z,1.4
2019-01-25T04:45:19.747Z,1.4
2019-01-25T04:46:09.832Z,1.4
2019-01-25T04:46:59.589Z,1.4
2019-01-25T04:47:49.936Z,1.4
2019-01-25T04:48:40.027Z,1.4
2019-01-25T04:49:29.483Z,1.4
2019-01-25T04:50:21.620Z,1.4
2019-01-25T04:51:09.931Z,1.4
2019-01-25T04:51:59.379Z,1.4
2019-01-25T04:52:50.301Z,1.4
2019-01-25T04:53:40.066Z,1.4
2019-01-25T04:54:30.362Z,1.4
2019-01-25T04:55:19.913Z,1.4
2019-01-25T04:56:10.520Z,1.4
2019-01-25T04:57:00.597Z,1.4
2019-01-25T04:57:50.613Z,1.4
2019-01-25T04:58:40.658Z,1.4
2019-01-25T04:59:30.487Z,1.4
2019-01-25T05:00:20.801Z,1.4
2019-01-25T05:01:10.866Z,1.4
2019-01-25T05:02:00.885Z,1.4
2019-01-25T05:02:50.668Z,1.4
2019-01-25T05:03:41.018Z,1.4
2019-01-25T05:04:30.776Z,1.4
2019-01-25T05:05:21.153Z,1.4
2019-01-25T05:06:11.253Z,1.4
2019-01-25T05:07:01.233Z,1.4
2019-01-25T05:07:50.772Z,1.4
2019-01-25T05:08:41.371Z,1.4
2019-01-25T05:09:31.128Z,1.4
2019-01-25T05:10:21.470Z,1.4
2019-01-25T05:11:19.336Z,1.4
2019-01-25T05:12:01.583Z,1.4
2019-01-25T05:12:55.640Z,1.4
2019-01-25T05:13:41.719Z,1.4
2019-01-25T05:14:31.480Z,1.4
2019-01-25T05:15:21.828Z,1.4
2019-01-25T05:16:11.855Z,1.4
2019-01-25T05:17:01.918Z,1.4
2019-01-25T05:17:51.996Z,1.4
2019-01-25T05:18:42.088Z,1.5
2019-01-25T05:19:31.820Z,1.4
2019-01-25T05:20:22.162Z,1.4
2019-01-25T05:21:12.279Z,1.4
2019-01-25T05:22:02.264Z,1.5
2019-01-25T05:22:52.072Z,1.5
2019-01-25T05:23:42.090Z,1.5
2019-01-25T05:24:32.453Z,1.5
2019-01-25T05:25:22.247Z,1.5
2019-01-25T05:26:12.561Z,1.5
2019-01-25T05:27:02.596Z,1.5
2019-01-25T05:27:52.649Z,1.5
2019-01-25T05:28:42.724Z,1.5
2019-01-25T05:29:32.501Z,1.5
2019-01-25T05:30:22.849Z,1.5
2019-01-25T05:31:12.628Z,1.5
2019-01-25T05:32:02.981Z,1.5
2019-01-25T05:32:52.988Z,1.5
2019-01-25T05:33:43.094Z,1.5
2019-01-25T05:34:33.117Z,1.5
2019-01-25T05:35:22.921Z,1.5
2019-01-25T05:36:13.221Z,1.5
2019-01-25T05:37:03.284Z,1.5
2019-01-25T05:37:53.371Z,1.5
2019-01-25T05:38:43.126Z,1.5
2019-01-25T05:39:33.457Z,1.4
2019-01-25T05:40:23.238Z,1.5
2019-01-25T05:41:13.576Z,1.5
2019-01-25T05:42:03.629Z,1.5
2019-01-25T05:42:53.680Z,1.4
2019-01-25T05:43:43.731Z,1.5
2019-01-25T05:44:33.800Z,1.5
2019-01-25T05:45:23.873Z,1.5
2019-01-25T05:46:13.650Z,1.5
2019-01-25T05:47:03.965Z,1.5
2019-01-25T05:47:54.069Z,1.5
2019-01-25T05:48:44.096Z,1.5
2019-01-25T05:49:34.128Z,1.5
2019-01-25T05:50:24.178Z,1.5
2019-01-25T05:51:14.260Z,1.4
2019-01-25T05:52:04.012Z,1.4
2019-01-25T05:52:54.373Z,1.4
2019-01-25T05:53:44.130Z,1.4
2019-01-25T05:54:33.645Z,1.4
2019-01-25T05:55:24.545Z,1.4
2019-01-25T05:56:14.034Z,1.4
2019-01-25T05:57:04.363Z,1.4
2019-01-25T05:57:54.704Z,1.4
2019-01-25T05:58:44.479Z,1.4
2019-01-25T05:59:34.545Z,1.4
2019-01-25T06:00:24.867Z,1.4
2019-01-25T06:01:14.919Z,1.4
2019-01-25T06:02:04.987Z,1.4
2019-01-25T06:02:54.776Z,1.4
2019-01-25T06:03:44.538Z,1.4
2019-01-25T06:04:35.156Z,1.4
2019-01-25T06:06:32.496Z,1.4
2019-01-25T06:07:22.999Z,1.3
2019-01-25T06:08:13.071Z,1.3
2019-01-25T06:09:03.150Z,1.3
2019-01-25T06:09:53.226Z,1.3
2019-01-25T06:10:42.949Z,1.3
2019-01-25T06:11:38.434Z,1.3
2019-01-25T06:12:23.059Z,1.3
2019-01-25T06:13:13.403Z,1.3
2019-01-25T06:14:03.166Z,1.3
2019-01-25T06:14:53.238Z,1.3
2019-01-25T06:15:43.283Z,1.3
2019-01-25T06:16:33.644Z,1.3
2019-01-25T06:17:23.129Z,1.3
2019-01-25T06:18:13.786Z,1.3
2019-01-25T06:19:03.529Z,1.3
2019-01-25T06:19:53.038Z,1.3
2019-01-25T06:20:43.931Z,1.3
2019-01-25T06:21:33.673Z,1.3
2019-01-25T06:22:23.510Z,1.3
2019-01-25T06:23:13.785Z,1.3
2019-01-25T06:24:03.859Z,1.3
2019-01-25T06:24:53.905Z,1.3
2019-01-25T06:25:43.967Z,1.3
2019-01-25T06:26:34.305Z,1.2
2019-01-25T06:27:24.354Z,1.2
2019-01-25T06:28:14.408Z,1.2
2019-01-25T06:29:04.467Z,1.2
2019-01-25T06:29:54.525Z,1.1
2019-01-25T06:30:44.297Z,1.2
2019-01-25T06:31:34.365Z,1.1
2019-01-25T06:32:24.687Z,1.2
2019-01-25T06:33:14.785Z,1.1
2019-01-25T06:34:04.305Z,1.1
2019-01-25T06:34:54.860Z,1.1
2019-01-25T06:35:44.946Z,1.1
2019-01-25T06:36:35.000Z,1.1
2019-01-25T06:37:24.765Z,1.1
2019-01-25T06:38:14.522Z,1.1
2019-01-25T06:39:05.171Z,1.1
2019-01-25T06:39:54.644Z,1.1
2019-01-25T06:40:44.709Z,1.1
2019-01-25T06:41:35.404Z,1.1
2019-01-25T06:42:25.089Z,1.1
2019-01-25T06:43:15.470Z,1.1
2019-01-25T06:44:05.234Z,1.1
2019-01-25T06:44:54.991Z,1.1
2019-01-25T06:45:45.331Z,1.1
2019-01-25T06:46:35.116Z,1.1
2019-01-25T06:47:25.704Z,1.1
2019-01-25T06:48:15.821Z,1.1
2019-01-25T06:49:05.283Z,1.1
2019-01-25T06:49:55.886Z,1.1
2019-01-25T06:50:45.941Z,1.1
2019-01-25T06:51:35.718Z,1.1
2019-01-25T06:52:25.521Z,1.1
2019-01-25T06:53:16.118Z,1.1
2019-01-25T06:54:06.174Z,1.2
2019-01-25T06:54:56.225Z,1.1
2019-01-25T06:55:46.291Z,1.2
2019-01-25T06:56:36.076Z,1.2
2019-01-25T06:57:26.143Z,1.2
2019-01-25T06:58:16.181Z,1.1
2019-01-25T06:59:06.233Z,1.2
2019-01-25T06:59:56.600Z,1.2
2019-01-25T07:00:46.643Z,1.2
2019-01-25T07:01:36.721Z,1.2
2019-01-25T07:02:26.467Z,1.2
2019-01-25T07:03:16.802Z,1.2
2019-01-25T07:04:08.185Z,1.1
2019-01-25T07:06:32.625Z,1.1
2019-01-25T07:07:22.758Z,1.1
2019-01-25T07:08:12.767Z,1.1
2019-01-25T07:09:02.826Z,1.1
2019-01-25T07:09:53.195Z,1.1
2019-01-25T07:10:42.682Z,1.1
2019-01-25T07:11:33.270Z,1.1
2019-01-25T07:12:22.742Z,1.1
2019-01-25T07:13:13.350Z,1.1
2019-01-25T07:14:03.423Z,1.1
2019-01-25T07:14:53.472Z,1.1
2019-01-25T07:15:43.537Z,1.1
2019-01-25T07:16:33.589Z,1.1
2019-01-25T07:17:23.382Z,1.1
2019-01-25T07:18:13.144Z,1.1
2019-01-25T07:19:03.802Z,1.2
2019-01-25T07:19:53.531Z,1.2
2019-01-25T07:20:43.869Z,1.2
2019-01-25T07:21:33.927Z,1.2
2019-01-25T07:22:23.461Z,1.3
2019-01-25T07:23:13.757Z,1.3
2019-01-25T07:24:04.089Z,1.3
2019-01-25T07:24:59.631Z,1.3
2019-01-25T07:25:43.944Z,1.3
2019-01-25T07:26:34.259Z,1.3
2019-01-25T07:27:24.050Z,1.3
2019-01-25T07:28:13.831Z,1.3
2019-01-25T07:29:04.506Z,1.3
2019-01-25T07:29:54.311Z,1.3
2019-01-25T07:30:44.400Z,1.3
2019-01-25T07:31:34.866Z,1.3
2019-01-25T07:32:24.357Z,1.3
2019-01-25T07:33:14.839Z,1.3
2019-01-25T07:34:04.879Z,1.3
2019-01-25T07:34:54.206Z,1.4
2019-01-25T07:35:44.891Z,1.3
2019-01-25T07:36:35.089Z,1.4
2019-01-25T07:37:24.876Z,1.4
2019-01-25T07:38:14.666Z,1.4
2019-01-25T07:39:05.273Z,1.3
2019-01-25T07:39:55.401Z,1.3
2019-01-25T07:40:45.420Z,1.3
2019-01-25T07:41:34.908Z,1.4
2019-01-25T07:42:25.476Z,1.4
2019-01-25T07:43:15.575Z,1.4
2019-01-25T07:44:05.411Z,1.4
2019-01-25T07:44:55.745Z,1.4
2019-01-25T07:45:45.915Z,1.4
2019-01-25T07:46:35.510Z,1.3
2019-01-25T07:47:25.828Z,1.4
2019-01-25T07:48:15.460Z,1.4
2019-01-25T07:49:06.133Z,1.3
2019-01-25T07:49:55.599Z,1.3
2019-01-25T07:50:45.825Z,1.3
2019-01-25T07:51:36.242Z,1.3
2019-01-25T07:52:26.208Z,1.3
2019-01-25T07:53:16.253Z,1.3
2019-01-25T07:54:06.390Z,1.3
2019-01-25T07:54:55.863Z,1.3
2019-01-25T07:55:46.518Z,1.3
2019-01-25T07:56:36.452Z,1.3
2019-01-25T07:57:26.408Z,1.3
2019-01-25T07:58:16.540Z,1.3
2019-01-25T07:59:06.166Z,1.3
2019-01-25T07:59:56.389Z,1.3
2019-01-25T08:00:46.544Z,1.2
2019-01-25T08:01:36.785Z,1.2
2019-01-25T08:02:26.404Z,1.1
2019-01-25T08:03:16.357Z,1.1
2019-01-25T08:04:06.807Z,1.1
2019-01-25T08:04:57.224Z,1.1
2019-01-25T08:05:47.136Z,1.1
2019-01-25T08:06:36.344Z,1.1
2019-01-25T08:07:27.472Z,1.1
2019-01-25T08:08:17.004Z,1.1
2019-01-25T08:09:07.481Z,1.1
2019-01-25T08:09:57.439Z,1
2019-01-25T08:10:47.339Z,1
2019-01-25T08:11:37.261Z,1
2019-01-25T08:12:27.293Z,1
2019-01-25T08:13:17.790Z,1
2019-01-25T08:14:07.418Z,1
2019-01-25T08:14:57.446Z,1
2019-01-25T08:15:47.589Z,1
2019-01-25T08:16:37.611Z,1
2019-01-25T08:17:27.691Z,1
2019-01-25T08:18:17.906Z,1
2019-01-25T08:19:08.013Z,0.9
2019-01-25T08:19:59.952Z,1
2019-01-25T08:20:48.031Z,1
2019-01-25T08:21:39.255Z,0.9
2019-01-25T08:22:28.471Z,0.9
2019-01-25T08:23:18.327Z,0.9
2019-01-25T08:24:07.549Z,0.9
2019-01-25T08:24:58.512Z,0.9
2019-01-25T08:25:48.559Z,0.9
2019-01-25T08:26:40.900Z,0.9
2019-01-25T08:27:28.627Z,0.9
2019-01-25T08:28:18.791Z,0.9
2019-01-25T08:29:08.392Z,0.8
2019-01-25T08:29:58.468Z,0.8
2019-01-25T08:30:48.973Z,0.8
2019-01-25T08:31:38.943Z,0.8
2019-01-25T08:32:28.962Z,0.8
2019-01-25T08:33:19.058Z,0.8
2019-01-25T08:34:09.011Z,0.8
2019-01-25T08:34:59.152Z,0.8
2019-01-25T08:35:48.677Z,0.8
2019-01-25T08:36:39.207Z,0.8
2019-01-25T08:37:29.100Z,0.8
2019-01-25T08:38:19.060Z,0.7
2019-01-25T08:39:09.433Z,0.7
2019-01-25T08:39:59.017Z,0.7
2019-01-25T08:40:49.248Z,0.7
2019-01-25T08:41:39.457Z,0.7
2019-01-25T08:42:29.441Z,0.7
2019-01-25T08:43:19.483Z,0.7
2019-01-25T08:44:09.491Z,0.7
2019-01-25T08:45:02.665Z,0.7
2019-01-25T08:45:52.212Z,0.6
2019-01-25T08:46:39.657Z,0.7
2019-01-25T08:47:29.780Z,0.7
2019-01-25T08:48:19.536Z,0.7
2019-01-25T08:49:10.459Z,0.7
2019-01-25T08:50:01.694Z,0.8
2019-01-25T08:50:50.025Z,0.8
2019-01-25T08:51:41.524Z,0.7
2019-01-25T08:52:30.326Z,0.8
2019-01-25T08:53:20.347Z,0.7
2019-01-25T08:54:09.866Z,0.7
2019-01-25T08:55:00.339Z,0.8
2019-01-25T08:55:50.566Z,0.7
2019-01-25T08:56:40.229Z,0.7
2019-01-25T08:57:30.717Z,0.8
2019-01-25T08:58:20.731Z,0.8
2019-01-25T08:59:11.037Z,0.8
2019-01-25T09:00:00.688Z,0.8
2019-01-25T09:00:52.474Z,0.8
2019-01-25T09:01:40.513Z,0.8
2019-01-25T09:02:30.864Z,0.8
2019-01-25T09:03:20.643Z,0.8
2019-01-25T09:04:10.131Z,0.8
2019-01-25T09:05:01.108Z,0.8
2019-01-25T09:05:51.065Z,0.8
2019-01-25T09:06:41.153Z,0.8
2019-01-25T09:07:30.980Z,0.8
2019-01-25T09:08:20.986Z,0.8
2019-01-25T09:09:11.025Z,0.8
2019-01-25T09:10:01.357Z,0.8
2019-01-25T09:10:50.865Z,0.8
2019-01-25T09:11:40.927Z,0.8
2019-01-25T09:12:31.542Z,0.8
2019-01-25T09:13:21.602Z,0.8
2019-01-25T09:14:11.663Z,0.8
2019-01-25T09:15:01.247Z,0.8
2019-01-25T09:15:51.774Z,0.8
2019-01-25T09:16:41.847Z,0.8
2019-01-25T09:17:31.599Z,0.8
2019-01-25T09:18:21.954Z,0.8
2019-01-25T09:19:11.444Z,0.8
2019-01-25T09:20:02.206Z,0.8
2019-01-25T09:20:52.996Z,0.8
2019-01-25T09:21:41.903Z,0.8
2019-01-25T09:22:32.222Z,0.8
2019-01-25T09:23:22.009Z,0.8
2019-01-25T09:24:12.351Z,0.8
2019-01-25T09:25:02.446Z,0.8
2019-01-25T09:25:52.163Z,0.9
2019-01-25T09:26:42.217Z,0.9
2019-01-25T09:27:32.616Z,0.9
2019-01-25T09:28:22.638Z,0.9
2019-01-25T09:29:12.407Z,0.8
2019-01-25T09:30:02.753Z,0.8
2019-01-25T09:30:52.526Z,0.9
2019-01-25T09:31:42.866Z,0.8
2019-01-25T09:32:32.931Z,0.8
2019-01-25T09:33:22.821Z,0.8
2019-01-25T09:34:13.048Z,0.8
2019-01-25T09:35:03.208Z,0.8
2019-01-25T09:35:52.873Z,0.8
2019-01-25T09:36:43.225Z,0.8
2019-01-25T09:37:33.261Z,0.8
2019-01-25T09:38:23.328Z,0.8
2019-01-25T09:39:13.103Z,0.8
2019-01-25T09:40:03.430Z,0.8
2019-01-25T09:40:53.190Z,0.8
2019-01-25T09:41:43.268Z,0.8
2019-01-25T09:42:33.915Z,0.9
2019-01-25T09:43:23.373Z,0.9
2019-01-25T09:44:13.708Z,0.8
2019-01-25T09:45:03.766Z,0.9
2019-01-25T09:45:53.820Z,0.9
2019-01-25T09:46:43.311Z,0.9
2019-01-25T09:47:33.372Z,0.9
2019-01-25T10:29:33.317Z,0.6
2019-01-25T10:30:23.680Z,0.7
2019-01-25T10:31:14.015Z,0.7
2019-01-25T10:32:04.082Z,0.7
2019-01-25T10:32:53.279Z,0.7
2019-01-25T10:33:43.911Z,0.7
2019-01-25T10:34:34.232Z,0.7
2019-01-25T10:35:24.077Z,0.7
2019-01-25T10:36:14.348Z,0.6
2019-01-25T10:37:04.125Z,0.6
2019-01-25T10:37:54.193Z,0.6
2019-01-25T10:38:44.252Z,0.7
2019-01-25T10:39:34.294Z,0.6
2019-01-25T10:40:24.362Z,0.7
2019-01-25T10:41:14.679Z,0.7
2019-01-25T10:42:04.757Z,0.7
2019-01-25T10:42:56.405Z,0.7
2019-01-25T10:43:44.590Z,0.7
2019-01-25T10:44:34.368Z,0.8
2019-01-25T10:45:24.695Z,0.8
2019-01-25T10:46:15.033Z,0.8
2019-01-25T10:47:05.093Z,0.8
2019-01-25T10:47:55.194Z,0.8
2019-01-25T10:48:44.915Z,0.8
2019-01-25T10:49:35.032Z,0.8
2019-01-25T10:50:25.338Z,0.8
2019-01-25T10:51:15.124Z,0.8
2019-01-25T10:52:05.163Z,0.8
2019-01-25T10:52:54.941Z,0.9
2019-01-25T10:53:45.534Z,0.9
2019-01-25T10:54:35.589Z,0.9
2019-01-25T10:55:25.649Z,0.9
2019-01-25T10:56:15.439Z,0.9
2019-01-25T10:57:05.773Z,0.9
2019-01-25T10:57:55.555Z,0.9
2019-01-25T10:58:45.593Z,0.9
2019-01-25T10:59:35.656Z,0.9
2019-01-25T11:00:26.019Z,1
2019-01-25T11:01:16.052Z,1
2019-01-25T11:02:06.102Z,0.9
2019-01-25T11:03:01.193Z,1
2019-01-25T11:03:47.779Z,1
2019-01-25T11:04:36.274Z,1
2019-01-25T11:05:25.799Z,1.1
2019-01-25T11:06:16.386Z,1.1
2019-01-25T11:07:06.481Z,1.1
2019-01-25T11:07:56.269Z,1.1
2019-01-25T11:08:46.599Z,1.1
2019-01-25T11:09:40.935Z,1.1
2019-01-25T11:10:26.678Z,1.1
2019-01-25T11:11:16.739Z,1.1
2019-01-25T11:12:06.781Z,1.1
2019-01-25T11:13:03.551Z,1.2
2019-01-25T11:13:46.901Z,1.2
2019-01-25T11:14:36.998Z,1.2
2019-01-25T11:15:26.734Z,1.2
2019-01-25T11:16:16.795Z,1.2
2019-01-25T11:17:07.166Z,1.2
2019-01-25T11:17:57.203Z,1.2
2019-01-25T11:18:46.966Z,1.2
2019-01-25T11:19:36.763Z,1.2
2019-01-25T11:20:27.426Z,1.2
2019-01-25T11:21:17.464Z,1.2
2019-01-25T11:22:07.183Z,1.2
2019-01-25T11:22:57.560Z,1.3
2019-01-25T11:23:47.300Z,1.3
2019-01-25T11:24:37.378Z,1.3
2019-01-25T11:25:27.426Z,1.2
2019-01-25T11:26:17.473Z,1.3
2019-01-25T11:27:07.802Z,1.3
2019-01-25T11:27:57.888Z,1.3
2019-01-25T11:28:47.927Z,1.3
2019-01-25T11:29:37.991Z,1.3
2019-01-25T11:30:28.098Z,1.3
2019-01-25T11:31:17.600Z,1.3
2019-01-25T11:32:08.203Z,1.3
2019-01-25T11:32:58.223Z,1.3
2019-01-25T11:33:48.003Z,1.3
2019-01-25T11:34:38.312Z,1.3
2019-01-25T11:35:28.382Z,1.3
2019-01-25T11:36:18.157Z,1.3
2019-01-25T11:37:08.507Z,1.3
2019-01-25T11:37:58.560Z,1.3
2019-01-25T11:38:48.595Z,1.3
2019-01-25T11:39:38.662Z,1.3
2019-01-25T11:40:28.716Z,1.3
2019-01-25T11:41:18.840Z,1.3
2019-01-25T11:42:08.572Z,1.3
2019-01-25T11:42:58.620Z,1.3
2019-01-25T11:43:48.692Z,1.3
2019-01-25T11:44:38.735Z,1.3
2019-01-25T11:45:29.073Z,1.3
2019-01-25T11:46:19.169Z,1.3
2019-01-25T11:47:09.181Z,1.3
2019-01-25T11:48:00.687Z,1.4
2019-01-25T11:48:49.290Z,1.3
2019-01-25T11:49:39.072Z,1.3
2019-01-25T11:50:29.405Z,1.4
2019-01-25T11:51:20.972Z,1.4
2019-01-25T11:52:09.314Z,1.3
2019-01-25T11:52:59.607Z,1.3
2019-01-25T11:53:49.641Z,1.4
2019-01-25T11:54:39.686Z,1.4
2019-01-25T11:55:29.463Z,1.3
2019-01-25T11:56:19.516Z,1.3
2019-01-25T11:57:09.851Z,1.3
2019-01-25T11:57:59.929Z,1.3
2019-01-25T11:58:49.971Z,1.3
2019-01-25T11:59:40.036Z,1.3
2019-01-25T12:00:30.096Z,1.3
2019-01-25T12:01:19.619Z,1.3
2019-01-25T12:02:10.276Z,1.3
2019-01-25T12:03:00.266Z,1.3
2019-01-25T12:03:50.318Z,1.3
2019-01-25T12:04:40.421Z,1.3
2019-01-25T12:05:30.160Z,1.3
2019-01-25T12:07:32.389Z,1.3
2019-01-25T12:08:22.481Z,1.2
2019-01-25T12:09:12.793Z,1.3
2019-01-25T12:10:02.558Z,1.3
2019-01-25T12:10:52.619Z,1.2
2019-01-25T12:11:42.945Z,1.2
2019-01-25T12:12:32.821Z,1.2
2019-01-25T12:13:23.067Z,1.2
2019-01-25T12:14:13.120Z,1.2
2019-01-25T12:15:03.216Z,1.2
2019-01-25T12:15:54.112Z,1.2
2019-01-25T12:16:43.282Z,1.2
2019-01-25T12:17:32.787Z,1.2
2019-01-25T12:18:23.619Z,1.1
2019-01-25T12:19:13.674Z,1.1